Aeroporto :
LOGIN :

Iscrizione | Disclaimer

   EN    FR    IT 

 










Sommario :    VFR   VFR Marginale   IFR   IFR Intensivo   IFR Molto Intensivo
Visibilità : 
Base nubi : 
>= 8 km
>= 3000ft
5 / 8 km
1000 / 3000 ft
1500m / 5 km
500 / 1000 ft
800 / 1500m
200 / 500 ft
< 800m
< 200 ft
Simboli :   Temporali  Nebbia  Neve Forte  Precipitazioni Forti  Vento > 20 kt
SIGMETs :   Varie  Temporali  Ghiacco  Turbolenza  Onda orograficha  Ceneri Vulcaniche






- Altitudine del aeroporto : 1708 ft
- Codice IATA : SJJ


LQSA - Sarajevo

ULTIMO METAR :
  • 301030Z VRB02KT 9999 SCT050 11/M01 Q1016

METARs OBSOLETI :
  • 301000Z 32005KT 260V040 9999 SCT050 10/M02 Q1016
  • 300930Z 32003KT 260V070 9999 SCT050 10/M01 Q1016
  • 300900Z VRB03KT 9999 SCT050 10/00 Q1017
  • 300830Z VRB01KT 9999 SCT050 08/01 Q1017
  • 300800Z VRB02KT 9999 BKN045 07/02 Q1017

TAF TAF LQSA
Valido dal 30 a 06 ore il 31 a 06 ore UTC


300655Z 3006/3106 33005KT 9999 SCT050 TX10/3013Z TNM00/3105Z
PROB30
TEMPO 3012/3018 04010KT
PROB40
TEMPO 3102/3106 3000 -SN BKN010 OVC025



MetMap, La meteo Aeronautica in un colpo d'occhio ! - Copyright ORBIFLY Dicembre 2007 - Disclaimer

ORBIFLY MET'MAP TEAM :

Programmazione e sviluppo : Alexandra Zaïnal
Concezione : Baudouin d'Aumeries
Aiuto per la programmazione : Marc-Olivier Méhu
Supporto tecnico e logistico : Manuel Goepfert
Aiuto per la traduzione : Arnaldo La Scala

Contatto : metmap@orbifly.com




FONTI E CREDITI :

   NOAA